To NAV CANADA Home Page Login to a new session Search on AWWS site Disclaimer Vers la page française équivalente Tips FAQ What's new on the site To the Forecasts and Observations / NOTAM section To "File a Flight Plan" website Publications and other links Update of the User's profile FIC Telephone Numbers My Weather Data Folder Route Weather Data Regional Weather Data Local Weather Data To the Forecasts and Observations / NOTAM section
Request Generated 11/13/2018 at 18:34:42 UTC . Weather information available at that time is displayed.

METAR/TAF

SEPT-ILES/QC    

METAR CYZV 131800Z 08005KT 30SM FEW012 OVC070 M05/M08 A3012 RMK SC2AS6 SLP204=
METAR CYZV 131700Z 07002KT 30SM FEW015 BKN070 OVC100 M05/M08 A3015 RMK SC2AC5AS1 SLP214=
METAR CYZV 131600Z 04003KT 020V080 30SM FEW014 SCT040 OVC090 M05/M09 A3017 RMK SC2SC2AS4 SLP222=

TAF CYZV 131742Z 1318/1418 06005KT P6SM FEW015 BKN070 TEMPO 1319/1320
2SM -SN OVC015
FM132000 09012G22KT 2SM -SN OVC015 TEMPO 1320/1323 1SM -SN VV010
FM132300 10012G22KT 1SM -SN VV008
FM140100 11012G22KT 1/2SM SN VV002 TEMPO 1405/1409 1/4SM +SN
BECMG 1407/1409 32012G22KT
FM141000 32012G22KT 3SM -SHSN BKN020 OVC040
FM141300 30020G30KT P6SM -SHSN BKN030
RMK NXT FCST BY 140000Z=
Your time UTC time
Weather data provided by Environment Canada and NAV CANADA